sensor_id;sensor_type;location;lat;lon;timestamp;P1;durP1;ratioP1;P2;durP2;ratioP2
21334;SDS011;69435;52.670;13.544;2023-06-10T00:00:45;7.57;;;4.13;;
21334;SDS011;69435;52.670;13.544;2023-06-10T00:03:11;7.07;;;4.20;;
21334;SDS011;69435;52.670;13.544;2023-06-10T00:05:38;7.07;;;4.40;;
21334;SDS011;69435;52.670;13.544;2023-06-10T00:08:04;7.67;;;4.13;;
21334;SDS011;69435;52.670;13.544;2023-06-10T00:10:36;6.47;;;4.17;;
21334;SDS011;69435;52.670;13.544;2023-06-10T00:13:04;10.37;;;4.07;;
21334;SDS011;69435;52.670;13.544;2023-06-10T00:15:33;7.03;;;4.43;;
21334;SDS011;69435;52.670;13.544;2023-06-10T00:18:00;6.80;;;3.70;;
21334;SDS011;69435;52.670;13.544;2023-06-10T00:20:27;12.90;;;4.90;;
21334;SDS011;69435;52.670;13.544;2023-06-10T00:22:54;7.90;;;4.30;;
21334;SDS011;69435;52.670;13.544;2023-06-10T00:25:19;9.27;;;3.83;;
21334;SDS011;69435;52.670;13.544;2023-06-10T00:27:45;7.07;;;4.13;;
21334;SDS011;69435;52.670;13.544;2023-06-10T00:30:11;6.90;;;4.40;;
21334;SDS011;69435;52.670;13.544;2023-06-10T00:32:38;12.43;;;4.73;;
21334;SDS011;69435;52.670;13.544;2023-06-10T00:35:04;6.43;;;3.90;;
21334;SDS011;69435;52.670;13.544;2023-06-10T00:37:31;11.27;;;4.43;;
21334;SDS011;69435;52.670;13.544;2023-06-10T00:39:59;6.87;;;4.03;;
21334;SDS011;69435;52.670;13.544;2023-06-10T00:42:26;12.67;;;4.57;;
21334;SDS011;69435;52.670;13.544;2023-06-10T00:44:53;14.63;;;4.10;;
21334;SDS011;69435;52.670;13.544;2023-06-10T00:47:20;11.97;;;4.83;;
21334;SDS011;69435;52.670;13.544;2023-06-10T00:49:47;5.60;;;3.90;;
21334;SDS011;69435;52.670;13.544;2023-06-10T00:52:16;9.73;;;4.33;;
21334;SDS011;69435;52.670;13.544;2023-06-10T00:54:44;8.60;;;3.97;;
21334;SDS011;69435;52.670;13.544;2023-06-10T00:57:12;8.73;;;4.17;;
21334;SDS011;69435;52.670;13.544;2023-06-10T00:59:42;6.43;;;3.80;;
21334;SDS011;69435;52.670;13.544;2023-06-10T01:02:13;10.30;;;3.90;;
21334;SDS011;69435;52.670;13.544;2023-06-10T01:04:39;9.17;;;4.10;;
21334;SDS011;69435;52.670;13.544;2023-06-10T01:07:10;9.73;;;4.10;;
21334;SDS011;69435;52.670;13.544;2023-06-10T01:10:01;8.37;;;4.63;;
21334;SDS011;69435;52.670;13.544;2023-06-10T01:12:45;9.47;;;4.40;;
21334;SDS011;69435;52.670;13.544;2023-06-10T01:15:33;10.93;;;4.57;;
21334;SDS011;69435;52.670;13.544;2023-06-10T01:18:07;6.03;;;3.83;;
21334;SDS011;69435;52.670;13.544;2023-06-10T01:20:40;10.73;;;5.57;;
21334;SDS011;69435;52.670;13.544;2023-06-10T01:23:08;7.70;;;4.20;;
21334;SDS011;69435;52.670;13.544;2023-06-10T01:25:37;8.17;;;4.50;;
21334;SDS011;69435;52.670;13.544;2023-06-10T01:28:19;6.60;;;4.17;;
21334;SDS011;69435;52.670;13.544;2023-06-10T01:31:02;14.50;;;4.50;;
21334;SDS011;69435;52.670;13.544;2023-06-10T01:33:59;15.40;;;4.60;;
21334;SDS011;69435;52.670;13.544;2023-06-10T01:36:29;6.57;;;4.40;;
21334;SDS011;69435;52.670;13.544;2023-06-10T01:38:58;8.57;;;4.63;;
21334;SDS011;69435;52.670;13.544;2023-06-10T01:41:27;10.77;;;4.90;;
21334;SDS011;69435;52.670;13.544;2023-06-10T01:43:54;8.13;;;4.80;;
21334;SDS011;69435;52.670;13.544;2023-06-10T01:46:20;8.47;;;4.77;;
21334;SDS011;69435;52.670;13.544;2023-06-10T01:48:47;13.30;;;4.43;;
21334;SDS011;69435;52.670;13.544;2023-06-10T01:51:13;8.53;;;4.57;;
21334;SDS011;69435;52.670;13.544;2023-06-10T01:53:39;13.70;;;4.77;;
21334;SDS011;69435;52.670;13.544;2023-06-10T01:56:05;6.43;;;4.10;;
21334;SDS011;69435;52.670;13.544;2023-06-10T01:58:31;10.60;;;4.77;;
21334;SDS011;69435;52.670;13.544;2023-06-10T02:00:57;8.43;;;4.93;;
21334;SDS011;69435;52.670;13.544;2023-06-10T02:03:23;6.17;;;4.93;;
21334;SDS011;69435;52.670;13.544;2023-06-10T02:05:49;10.07;;;4.17;;
21334;SDS011;69435;52.670;13.544;2023-06-10T02:08:15;11.60;;;5.00;;
21334;SDS011;69435;52.670;13.544;2023-06-10T02:10:41;9.17;;;4.73;;
21334;SDS011;69435;52.670;13.544;2023-06-10T02:13:07;10.70;;;5.07;;
21334;SDS011;69435;52.670;13.544;2023-06-10T02:15:32;11.70;;;4.77;;
21334;SDS011;69435;52.670;13.544;2023-06-10T02:17:59;11.73;;;4.90;;
21334;SDS011;69435;52.670;13.544;2023-06-10T02:20:25;8.77;;;5.00;;
21334;SDS011;69435;52.670;13.544;2023-06-10T02:22:52;7.23;;;4.73;;
21334;SDS011;69435;52.670;13.544;2023-06-10T02:25:18;9.80;;;4.93;;
21334;SDS011;69435;52.670;13.544;2023-06-10T02:27:44;11.57;;;4.70;;
21334;SDS011;69435;52.670;13.544;2023-06-10T02:30:10;12.60;;;5.23;;
21334;SDS011;69435;52.670;13.544;2023-06-10T02:32:37;7.70;;;4.30;;
21334;SDS011;69435;52.670;13.544;2023-06-10T02:35:03;12.47;;;4.97;;
21334;SDS011;69435;52.670;13.544;2023-06-10T02:37:29;7.70;;;4.90;;
21334;SDS011;69435;52.670;13.544;2023-06-10T02:39:55;12.33;;;4.70;;
21334;SDS011;69435;52.670;13.544;2023-06-10T02:42:22;12.27;;;5.00;;
21334;SDS011;69435;52.670;13.544;2023-06-10T02:44:47;10.40;;;5.70;;
21334;SDS011;69435;52.670;13.544;2023-06-10T02:47:13;22.83;;;5.60;;
21334;SDS011;69435;52.670;13.544;2023-06-10T02:49:39;7.93;;;5.00;;
21334;SDS011;69435;52.670;13.544;2023-06-10T02:52:05;10.23;;;4.87;;
21334;SDS011;69435;52.670;13.544;2023-06-10T02:54:33;8.00;;;5.03;;
21334;SDS011;69435;52.670;13.544;2023-06-10T02:56:58;7.87;;;4.87;;
21334;SDS011;69435;52.670;13.544;2023-06-10T02:59:25;13.93;;;4.87;;
21334;SDS011;69435;52.670;13.544;2023-06-10T03:01:52;10.07;;;5.10;;
21334;SDS011;69435;52.670;13.544;2023-06-10T03:04:18;9.10;;;4.87;;
21334;SDS011;69435;52.670;13.544;2023-06-10T03:06:43;7.57;;;5.63;;
21334;SDS011;69435;52.670;13.544;2023-06-10T03:09:10;8.87;;;5.50;;
21334;SDS011;69435;52.670;13.544;2023-06-10T03:11:36;9.07;;;5.23;;
21334;SDS011;69435;52.670;13.544;2023-06-10T03:14:02;9.27;;;4.70;;
21334;SDS011;69435;52.670;13.544;2023-06-10T03:16:28;16.87;;;5.27;;
21334;SDS011;69435;52.670;13.544;2023-06-10T03:18:55;8.33;;;5.50;;
21334;SDS011;69435;52.670;13.544;2023-06-10T03:21:21;14.30;;;5.50;;
21334;SDS011;69435;52.670;13.544;2023-06-10T03:23:47;12.17;;;5.73;;
21334;SDS011;69435;52.670;13.544;2023-06-10T03:26:17;9.27;;;5.10;;
21334;SDS011;69435;52.670;13.544;2023-06-10T03:28:46;10.57;;;5.47;;
21334;SDS011;69435;52.670;13.544;2023-06-10T03:31:12;7.50;;;4.67;;
21334;SDS011;69435;52.670;13.544;2023-06-10T03:33:38;15.03;;;5.77;;
21334;SDS011;69435;52.670;13.544;2023-06-10T03:36:04;10.83;;;5.60;;
21334;SDS011;69435;52.670;13.544;2023-06-10T03:38:30;7.90;;;5.57;;
21334;SDS011;69435;52.670;13.544;2023-06-10T03:40:56;11.57;;;5.23;;
21334;SDS011;69435;52.670;13.544;2023-06-10T03:43:22;6.17;;;5.57;;
21334;SDS011;69435;52.670;13.544;2023-06-10T03:45:47;12.83;;;5.07;;
21334;SDS011;69435;52.670;13.544;2023-06-10T03:48:14;6.33;;;5.13;;
21334;SDS011;69435;52.670;13.544;2023-06-10T03:50:40;10.83;;;5.40;;
21334;SDS011;69435;52.670;13.544;2023-06-10T03:53:07;12.97;;;5.63;;
21334;SDS011;69435;52.670;13.544;2023-06-10T03:55:33;10.97;;;5.60;;
21334;SDS011;69435;52.670;13.544;2023-06-10T03:57:59;11.03;;;5.47;;
21334;SDS011;69435;52.670;13.544;2023-06-10T04:00:24;7.10;;;5.27;;
21334;SDS011;69435;52.670;13.544;2023-06-10T04:02:51;8.47;;;5.33;;
21334;SDS011;69435;52.670;13.544;2023-06-10T04:05:17;9.30;;;5.33;;
21334;SDS011;69435;52.670;13.544;2023-06-10T04:07:48;11.03;;;5.80;;
21334;SDS011;69435;52.670;13.544;2023-06-10T04:10:13;14.07;;;5.40;;
21334;SDS011;69435;52.670;13.544;2023-06-10T04:12:40;8.43;;;4.73;;
21334;SDS011;69435;52.670;13.544;2023-06-10T04:15:07;9.03;;;5.17;;
21334;SDS011;69435;52.670;13.544;2023-06-10T04:17:33;9.47;;;5.33;;
21334;SDS011;69435;52.670;13.544;2023-06-10T04:20:00;6.93;;;5.10;;
21334;SDS011;69435;52.670;13.544;2023-06-10T04:22:28;12.90;;;5.73;;
21334;SDS011;69435;52.670;13.544;2023-06-10T04:24:54;9.90;;;5.50;;
21334;SDS011;69435;52.670;13.544;2023-06-10T04:27:20;7.90;;;4.97;;
21334;SDS011;69435;52.670;13.544;2023-06-10T04:29:46;9.40;;;6.27;;
21334;SDS011;69435;52.670;13.544;2023-06-10T04:32:11;10.60;;;5.50;;
21334;SDS011;69435;52.670;13.544;2023-06-10T04:34:37;10.70;;;5.43;;
21334;SDS011;69435;52.670;13.544;2023-06-10T04:37:06;8.83;;;5.30;;
21334;SDS011;69435;52.670;13.544;2023-06-10T04:39:32;9.47;;;5.17;;
21334;SDS011;69435;52.670;13.544;2023-06-10T04:41:58;6.17;;;4.77;;
21334;SDS011;69435;52.670;13.544;2023-06-10T04:44:25;7.40;;;4.80;;
21334;SDS011;69435;52.670;13.544;2023-06-10T04:46:51;6.20;;;5.00;;
21334;SDS011;69435;52.670;13.544;2023-06-10T04:49:17;8.23;;;5.40;;
21334;SDS011;69435;52.670;13.544;2023-06-10T04:51:42;8.57;;;4.67;;
21334;SDS011;69435;52.670;13.544;2023-06-10T04:54:09;6.90;;;5.10;;
21334;SDS011;69435;52.670;13.544;2023-06-10T04:56:35;7.87;;;4.93;;
21334;SDS011;69435;52.670;13.544;2023-06-10T04:59:02;7.07;;;4.93;;
21334;SDS011;69435;52.670;13.544;2023-06-10T05:01:28;8.27;;;5.13;;
21334;SDS011;69435;52.670;13.544;2023-06-10T05:03:54;9.90;;;4.90;;
21334;SDS011;69435;52.670;13.544;2023-06-10T05:06:20;8.50;;;5.67;;
21334;SDS011;69435;52.670;13.544;2023-06-10T05:08:45;7.90;;;5.17;;
21334;SDS011;69435;52.670;13.544;2023-06-10T05:11:12;7.63;;;5.27;;
21334;SDS011;69435;52.670;13.544;2023-06-10T05:13:39;11.47;;;5.20;;
21334;SDS011;69435;52.670;13.544;2023-06-10T05:16:07;7.57;;;5.00;;
21334;SDS011;69435;52.670;13.544;2023-06-10T05:18:34;6.13;;;4.30;;
21334;SDS011;69435;52.670;13.544;2023-06-10T05:21:04;9.37;;;4.83;;
21334;SDS011;69435;52.670;13.544;2023-06-10T05:23:30;6.27;;;5.17;;
21334;SDS011;69435;52.670;13.544;2023-06-10T05:26:03;9.17;;;5.00;;
21334;SDS011;69435;52.670;13.544;2023-06-10T05:28:29;8.37;;;5.23;;
21334;SDS011;69435;52.670;13.544;2023-06-10T05:30:55;7.30;;;5.10;;
21334;SDS011;69435;52.670;13.544;2023-06-10T05:33:21;8.33;;;5.03;;
21334;SDS011;69435;52.670;13.544;2023-06-10T05:35:47;11.03;;;5.60;;
21334;SDS011;69435;52.670;13.544;2023-06-10T05:38:12;6.13;;;4.63;;
21334;SDS011;69435;52.670;13.544;2023-06-10T05:40:38;6.67;;;5.47;;
21334;SDS011;69435;52.670;13.544;2023-06-10T05:43:04;5.90;;;4.87;;
21334;SDS011;69435;52.670;13.544;2023-06-10T05:45:30;17.30;;;4.83;;
21334;SDS011;69435;52.670;13.544;2023-06-10T05:47:56;8.87;;;5.10;;
21334;SDS011;69435;52.670;13.544;2023-06-10T05:50:24;11.53;;;5.07;;
21334;SDS011;69435;52.670;13.544;2023-06-10T05:52:50;6.03;;;5.03;;
21334;SDS011;69435;52.670;13.544;2023-06-10T05:55:18;8.67;;;5.50;;
21334;SDS011;69435;52.670;13.544;2023-06-10T05:57:44;5.17;;;4.63;;
21334;SDS011;69435;52.670;13.544;2023-06-10T06:00:10;8.63;;;4.60;;
21334;SDS011;69435;52.670;13.544;2023-06-10T06:02:36;9.43;;;4.97;;
21334;SDS011;69435;52.670;13.544;2023-06-10T06:05:02;12.63;;;5.10;;
21334;SDS011;69435;52.670;13.544;2023-06-10T06:07:28;6.70;;;4.87;;
21334;SDS011;69435;52.670;13.544;2023-06-10T06:09:55;4.90;;;4.43;;
21334;SDS011;69435;52.670;13.544;2023-06-10T06:12:22;5.80;;;4.43;;
21334;SDS011;69435;52.670;13.544;2023-06-10T06:14:47;5.57;;;4.40;;
21334;SDS011;69435;52.670;13.544;2023-06-10T06:17:14;5.63;;;5.07;;
21334;SDS011;69435;52.670;13.544;2023-06-10T06:19:41;5.47;;;4.37;;
21334;SDS011;69435;52.670;13.544;2023-06-10T06:22:06;6.67;;;5.10;;
21334;SDS011;69435;52.670;13.544;2023-06-10T06:24:32;7.67;;;5.00;;
21334;SDS011;69435;52.670;13.544;2023-06-10T06:26:58;10.07;;;5.10;;
21334;SDS011;69435;52.670;13.544;2023-06-10T06:29:25;9.07;;;4.73;;
21334;SDS011;69435;52.670;13.544;2023-06-10T06:31:51;8.27;;;4.70;;
21334;SDS011;69435;52.670;13.544;2023-06-10T06:34:16;10.83;;;5.47;;
21334;SDS011;69435;52.670;13.544;2023-06-10T06:36:43;10.70;;;5.10;;
21334;SDS011;69435;52.670;13.544;2023-06-10T06:39:08;7.57;;;5.10;;
21334;SDS011;69435;52.670;13.544;2023-06-10T06:41:34;8.93;;;4.37;;
21334;SDS011;69435;52.670;13.544;2023-06-10T06:44:00;7.60;;;4.70;;
21334;SDS011;69435;52.670;13.544;2023-06-10T06:46:29;5.80;;;4.67;;
21334;SDS011;69435;52.670;13.544;2023-06-10T06:48:54;10.90;;;5.17;;
21334;SDS011;69435;52.670;13.544;2023-06-10T06:51:23;10.13;;;5.07;;
21334;SDS011;69435;52.670;13.544;2023-06-10T06:53:50;5.63;;;4.90;;
21334;SDS011;69435;52.670;13.544;2023-06-10T06:56:16;8.17;;;5.20;;
21334;SDS011;69435;52.670;13.544;2023-06-10T06:58:42;8.50;;;4.70;;
21334;SDS011;69435;52.670;13.544;2023-06-10T07:01:08;6.47;;;5.07;;
21334;SDS011;69435;52.670;13.544;2023-06-10T07:03:34;6.30;;;4.60;;
21334;SDS011;69435;52.670;13.544;2023-06-10T07:06:00;6.70;;;4.83;;
21334;SDS011;69435;52.670;13.544;2023-06-10T07:08:25;6.57;;;4.60;;
21334;SDS011;69435;52.670;13.544;2023-06-10T07:10:51;6.10;;;4.30;;
21334;SDS011;69435;52.670;13.544;2023-06-10T07:13:17;9.63;;;4.60;;
21334;SDS011;69435;52.670;13.544;2023-06-10T07:15:43;6.03;;;4.83;;
21334;SDS011;69435;52.670;13.544;2023-06-10T07:18:10;8.13;;;5.23;;
21334;SDS011;69435;52.670;13.544;2023-06-10T07:20:36;7.17;;;4.97;;
21334;SDS011;69435;52.670;13.544;2023-06-10T07:23:03;7.80;;;4.70;;
21334;SDS011;69435;52.670;13.544;2023-06-10T07:25:29;6.47;;;4.30;;
21334;SDS011;69435;52.670;13.544;2023-06-10T07:27:54;5.45;;;4.30;;
21334;SDS011;69435;52.670;13.544;2023-06-10T07:30:20;8.07;;;4.15;;
21334;SDS011;69435;52.670;13.544;2023-06-10T07:32:46;8.10;;;4.82;;
21334;SDS011;69435;52.670;13.544;2023-06-10T07:35:13;5.35;;;4.43;;
21334;SDS011;69435;52.670;13.544;2023-06-10T07:37:40;5.78;;;5.18;;
21334;SDS011;69435;52.670;13.544;2023-06-10T07:40:05;5.50;;;4.82;;
21334;SDS011;69435;52.670;13.544;2023-06-10T07:42:34;6.90;;;5.03;;
21334;SDS011;69435;52.670;13.544;2023-06-10T07:45:02;6.95;;;4.82;;
21334;SDS011;69435;52.670;13.544;2023-06-10T07:47:29;5.82;;;5.13;;
21334;SDS011;69435;52.670;13.544;2023-06-10T07:49:56;9.82;;;5.05;;
21334;SDS011;69435;52.670;13.544;2023-06-10T07:52:21;9.10;;;4.80;;
21334;SDS011;69435;52.670;13.544;2023-06-10T07:54:47;5.85;;;5.15;;
21334;SDS011;69435;52.670;13.544;2023-06-10T07:57:13;8.63;;;5.20;;
21334;SDS011;69435;52.670;13.544;2023-06-10T07:59:41;8.15;;;5.13;;
21334;SDS011;69435;52.670;13.544;2023-06-10T08:02:07;6.25;;;4.70;;
21334;SDS011;69435;52.670;13.544;2023-06-10T08:04:34;8.30;;;4.95;;
21334;SDS011;69435;52.670;13.544;2023-06-10T08:07:00;10.18;;;4.88;;
21334;SDS011;69435;52.670;13.544;2023-06-10T08:09:27;12.88;;;5.57;;
21334;SDS011;69435;52.670;13.544;2023-06-10T08:11:53;7.97;;;5.75;;
21334;SDS011;69435;52.670;13.544;2023-06-10T08:14:21;7.05;;;5.13;;
21334;SDS011;69435;52.670;13.544;2023-06-10T08:16:47;11.75;;;5.80;;
21334;SDS011;69435;52.670;13.544;2023-06-10T08:19:13;15.50;;;6.23;;
21334;SDS011;69435;52.670;13.544;2023-06-10T08:21:38;14.37;;;6.10;;
21334;SDS011;69435;52.670;13.544;2023-06-10T08:24:08;15.97;;;6.03;;
21334;SDS011;69435;52.670;13.544;2023-06-10T08:26:35;8.73;;;6.23;;
21334;SDS011;69435;52.670;13.544;2023-06-10T08:29:01;6.60;;;5.73;;
21334;SDS011;69435;52.670;13.544;2023-06-10T08:31:27;8.63;;;6.73;;
21334;SDS011;69435;52.670;13.544;2023-06-10T08:33:53;8.77;;;5.37;;
21334;SDS011;69435;52.670;13.544;2023-06-10T08:36:19;12.50;;;5.73;;
21334;SDS011;69435;52.670;13.544;2023-06-10T08:38:44;10.90;;;6.17;;
21334;SDS011;69435;52.670;13.544;2023-06-10T08:41:12;12.03;;;6.13;;
21334;SDS011;69435;52.670;13.544;2023-06-10T08:43:46;13.97;;;6.13;;
21334;SDS011;69435;52.670;13.544;2023-06-10T08:46:24;8.57;;;6.07;;
21334;SDS011;69435;52.670;13.544;2023-06-10T08:48:56;12.73;;;5.87;;
21334;SDS011;69435;52.670;13.544;2023-06-10T08:51:31;6.73;;;5.50;;
21334;SDS011;69435;52.670;13.544;2023-06-10T08:54:02;10.13;;;5.80;;
21334;SDS011;69435;52.670;13.544;2023-06-10T08:56:40;7.07;;;6.33;;
21334;SDS011;69435;52.670;13.544;2023-06-10T08:59:08;8.37;;;5.80;;
21334;SDS011;69435;52.670;13.544;2023-06-10T09:01:39;7.83;;;5.90;;
21334;SDS011;69435;52.670;13.544;2023-06-10T09:04:05;12.43;;;5.73;;
21334;SDS011;69435;52.670;13.544;2023-06-10T09:06:32;8.77;;;6.23;;
21334;SDS011;69435;52.670;13.544;2023-06-10T09:08:59;11.10;;;6.53;;
21334;SDS011;69435;52.670;13.544;2023-06-10T09:11:25;10.30;;;6.40;;
21334;SDS011;69435;52.670;13.544;2023-06-10T09:13:52;11.17;;;6.90;;
21334;SDS011;69435;52.670;13.544;2023-06-10T09:16:19;13.00;;;6.03;;
21334;SDS011;69435;52.670;13.544;2023-06-10T09:18:45;14.47;;;6.93;;
21334;SDS011;69435;52.670;13.544;2023-06-10T09:21:11;8.57;;;6.57;;
21334;SDS011;69435;52.670;13.544;2023-06-10T09:23:37;10.33;;;5.77;;
21334;SDS011;69435;52.670;13.544;2023-06-10T09:26:07;8.27;;;6.20;;
21334;SDS011;69435;52.670;13.544;2023-06-10T09:28:35;9.67;;;6.30;;
21334;SDS011;69435;52.670;13.544;2023-06-10T09:31:02;11.43;;;6.37;;
21334;SDS011;69435;52.670;13.544;2023-06-10T09:33:32;10.00;;;7.23;;
21334;SDS011;69435;52.670;13.544;2023-06-10T09:36:02;8.07;;;7.03;;
21334;SDS011;69435;52.670;13.544;2023-06-10T09:38:29;11.53;;;6.83;;
21334;SDS011;69435;52.670;13.544;2023-06-10T09:41:00;10.50;;;6.83;;
21334;SDS011;69435;52.670;13.544;2023-06-10T09:43:44;9.63;;;6.77;;
21334;SDS011;69435;52.670;13.544;2023-06-10T09:46:18;7.93;;;7.13;;
21334;SDS011;69435;52.670;13.544;2023-06-10T09:48:46;9.37;;;6.73;;
21334;SDS011;69435;52.670;13.544;2023-06-10T09:51:13;9.70;;;7.13;;
21334;SDS011;69435;52.670;13.544;2023-06-10T09:53:42;7.50;;;6.60;;
21334;SDS011;69435;52.670;13.544;2023-06-10T09:56:08;7.27;;;6.57;;
21334;SDS011;69435;52.670;13.544;2023-06-10T09:58:38;7.80;;;7.00;;
21334;SDS011;69435;52.670;13.544;2023-06-10T10:01:11;11.80;;;5.97;;
21334;SDS011;69435;52.670;13.544;2023-06-10T10:03:46;11.10;;;6.57;;
21334;SDS011;69435;52.670;13.544;2023-06-10T10:06:16;9.50;;;7.40;;
21334;SDS011;69435;52.670;13.544;2023-06-10T10:08:48;8.60;;;7.00;;
21334;SDS011;69435;52.670;13.544;2023-06-10T10:11:16;11.90;;;7.50;;
21334;SDS011;69435;52.670;13.544;2023-06-10T10:13:48;11.27;;;8.40;;
21334;SDS011;69435;52.670;13.544;2023-06-10T10:16:17;14.23;;;8.80;;
21334;SDS011;69435;52.670;13.544;2023-06-10T10:19:01;10.80;;;8.10;;
21334;SDS011;69435;52.670;13.544;2023-06-10T10:21:37;13.20;;;9.17;;
21334;SDS011;69435;52.670;13.544;2023-06-10T10:26:51;11.87;;;9.30;;
21334;SDS011;69435;52.670;13.544;2023-06-10T10:29:24;9.50;;;7.87;;
21334;SDS011;69435;52.670;13.544;2023-06-10T10:32:04;3.17;;;2.87;;
21334;SDS011;69435;52.670;13.544;2023-06-10T10:34:35;3.40;;;2.70;;
21334;SDS011;69435;52.670;13.544;2023-06-10T10:37:10;3.27;;;2.97;;
21334;SDS011;69435;52.670;13.544;2023-06-10T10:39:37;3.63;;;3.33;;
21334;SDS011;69435;52.670;13.544;2023-06-10T10:42:04;4.67;;;4.37;;
21334;SDS011;69435;52.670;13.544;2023-06-10T10:44:36;10.73;;;6.97;;
21334;SDS011;69435;52.670;13.544;2023-06-10T10:47:04;9.10;;;8.40;;
21334;SDS011;69435;52.670;13.544;2023-06-10T10:49:37;11.43;;;8.50;;
21334;SDS011;69435;52.670;13.544;2023-06-10T10:52:09;11.40;;;9.33;;
21334;SDS011;69435;52.670;13.544;2023-06-10T10:54:38;10.37;;;9.40;;
21334;SDS011;69435;52.670;13.544;2023-06-10T10:57:18;18.00;;;9.43;;
21334;SDS011;69435;52.670;13.544;2023-06-10T10:59:50;11.30;;;9.27;;
21334;SDS011;69435;52.670;13.544;2023-06-10T11:02:39;10.73;;;9.47;;
21334;SDS011;69435;52.670;13.544;2023-06-10T11:05:14;10.70;;;9.30;;
21334;SDS011;69435;52.670;13.544;2023-06-10T11:08:03;10.47;;;9.07;;
21334;SDS011;69435;52.670;13.544;2023-06-10T11:10:33;15.33;;;8.67;;
21334;SDS011;69435;52.670;13.544;2023-06-10T11:13:07;9.47;;;8.67;;
21334;SDS011;69435;52.670;13.544;2023-06-10T11:15:49;9.20;;;8.37;;
21334;SDS011;69435;52.670;13.544;2023-06-10T11:18:25;11.13;;;7.20;;
21334;SDS011;69435;52.670;13.544;2023-06-10T11:20:58;8.33;;;7.10;;
21334;SDS011;69435;52.670;13.544;2023-06-10T11:23:37;7.67;;;6.87;;
21334;SDS011;69435;52.670;13.544;2023-06-10T11:26:13;9.52;;;7.28;;
21334;SDS011;69435;52.670;13.544;2023-06-10T11:31:26;8.38;;;7.10;;
21334;SDS011;69435;52.670;13.544;2023-06-10T11:34:04;8.35;;;7.20;;
21334;SDS011;69435;52.670;13.544;2023-06-10T11:36:38;8.15;;;6.88;;
21334;SDS011;69435;52.670;13.544;2023-06-10T11:39:11;8.00;;;6.85;;
21334;SDS011;69435;52.670;13.544;2023-06-10T11:41:38;7.43;;;6.50;;
21334;SDS011;69435;52.670;13.544;2023-06-10T11:44:12;7.32;;;6.60;;
21334;SDS011;69435;52.670;13.544;2023-06-10T11:46:39;6.57;;;6.07;;
21334;SDS011;69435;52.670;13.544;2023-06-10T11:49:07;10.43;;;5.85;;
21334;SDS011;69435;52.670;13.544;2023-06-10T11:51:34;10.38;;;6.65;;
21334;SDS011;69435;52.670;13.544;2023-06-10T11:54:03;7.38;;;6.85;;
21334;SDS011;69435;52.670;13.544;2023-06-10T11:56:30;7.90;;;7.15;;
21334;SDS011;69435;52.670;13.544;2023-06-10T11:58:58;7.72;;;7.13;;
21334;SDS011;69435;52.670;13.544;2023-06-10T12:01:35;8.15;;;7.10;;
21334;SDS011;69435;52.670;13.544;2023-06-10T12:04:06;6.95;;;6.43;;
21334;SDS011;69435;52.670;13.544;2023-06-10T12:06:41;7.63;;;6.93;;
21334;SDS011;69435;52.670;13.544;2023-06-10T12:09:22;7.47;;;6.80;;
21334;SDS011;69435;52.670;13.544;2023-06-10T12:11:51;7.55;;;7.05;;
21334;SDS011;69435;52.670;13.544;2023-06-10T12:17:23;7.68;;;7.07;;
21334;SDS011;69435;52.670;13.544;2023-06-10T12:20:24;7.90;;;7.40;;
21334;SDS011;69435;52.670;13.544;2023-06-10T12:22:53;8.25;;;7.55;;
21334;SDS011;69435;52.670;13.544;2023-06-10T12:25:24;9.95;;;7.72;;
21334;SDS011;69435;52.670;13.544;2023-06-10T12:27:53;8.60;;;7.85;;
21334;SDS011;69435;52.670;13.544;2023-06-10T12:30:24;9.02;;;8.15;;
21334;SDS011;69435;52.670;13.544;2023-06-10T12:32:52;10.45;;;7.45;;
21334;SDS011;69435;52.670;13.544;2023-06-10T12:35:20;8.23;;;7.43;;
21334;SDS011;69435;52.670;13.544;2023-06-10T12:37:59;8.38;;;7.45;;
21334;SDS011;69435;52.670;13.544;2023-06-10T12:42:56;8.10;;;7.45;;
21334;SDS011;69435;52.670;13.544;2023-06-10T12:45:27;7.40;;;6.85;;
21334;SDS011;69435;52.670;13.544;2023-06-10T12:48:16;8.55;;;7.75;;
21334;SDS011;69435;52.670;13.544;2023-06-10T12:50:50;8.15;;;7.50;;
21334;SDS011;69435;52.670;13.544;2023-06-10T12:53:18;7.47;;;6.88;;
21334;SDS011;69435;52.670;13.544;2023-06-10T12:55:46;7.78;;;6.80;;
21334;SDS011;69435;52.670;13.544;2023-06-10T12:58:12;7.75;;;7.00;;
21334;SDS011;69435;52.670;13.544;2023-06-10T13:00:39;7.50;;;6.97;;
21334;SDS011;69435;52.670;13.544;2023-06-10T13:03:07;7.72;;;7.05;;
21334;SDS011;69435;52.670;13.544;2023-06-10T13:05:37;7.95;;;7.18;;
21334;SDS011;69435;52.670;13.544;2023-06-10T13:08:07;6.72;;;6.22;;
21334;SDS011;69435;52.670;13.544;2023-06-10T13:10:35;8.43;;;6.80;;
21334;SDS011;69435;52.670;13.544;2023-06-10T13:13:02;7.57;;;7.00;;
21334;SDS011;69435;52.670;13.544;2023-06-10T13:15:33;7.05;;;6.43;;
21334;SDS011;69435;52.670;13.544;2023-06-10T13:18:02;7.18;;;6.68;;
21334;SDS011;69435;52.670;13.544;2023-06-10T13:20:29;7.18;;;6.65;;
21334;SDS011;69435;52.670;13.544;2023-06-10T13:22:56;7.70;;;6.88;;
21334;SDS011;69435;52.670;13.544;2023-06-10T13:25:21;7.88;;;6.30;;
21334;SDS011;69435;52.670;13.544;2023-06-10T13:27:48;7.63;;;5.95;;
21334;SDS011;69435;52.670;13.544;2023-06-10T13:30:14;5.60;;;5.30;;
21334;SDS011;69435;52.670;13.544;2023-06-10T13:32:40;7.18;;;5.90;;
21334;SDS011;69435;52.670;13.544;2023-06-10T13:35:06;5.43;;;4.97;;
21334;SDS011;69435;52.670;13.544;2023-06-10T13:37:32;4.93;;;4.57;;
21334;SDS011;69435;52.670;13.544;2023-06-10T13:39:59;7.10;;;5.07;;
21334;SDS011;69435;52.670;13.544;2023-06-10T13:42:25;5.07;;;4.78;;
21334;SDS011;69435;52.670;13.544;2023-06-10T13:44:54;5.28;;;4.82;;
21334;SDS011;69435;52.670;13.544;2023-06-10T13:47:20;5.43;;;5.07;;
21334;SDS011;69435;52.670;13.544;2023-06-10T13:49:46;5.57;;;5.07;;
21334;SDS011;69435;52.670;13.544;2023-06-10T13:52:17;5.15;;;4.65;;
21334;SDS011;69435;52.670;13.544;2023-06-10T13:54:43;5.75;;;5.22;;
21334;SDS011;69435;52.670;13.544;2023-06-10T13:57:09;7.38;;;4.90;;
21334;SDS011;69435;52.670;13.544;2023-06-10T13:59:37;5.10;;;4.70;;
21334;SDS011;69435;52.670;13.544;2023-06-10T14:02:03;4.88;;;4.57;;
21334;SDS011;69435;52.670;13.544;2023-06-10T14:04:29;5.55;;;5.15;;
21334;SDS011;69435;52.670;13.544;2023-06-10T14:06:55;5.63;;;5.22;;
21334;SDS011;69435;52.670;13.544;2023-06-10T14:09:20;6.00;;;5.10;;
21334;SDS011;69435;52.670;13.544;2023-06-10T14:11:47;5.35;;;4.97;;
21334;SDS011;69435;52.670;13.544;2023-06-10T14:14:13;5.80;;;5.20;;
21334;SDS011;69435;52.670;13.544;2023-06-10T14:16:40;6.32;;;5.78;;
21334;SDS011;69435;52.670;13.544;2023-06-10T14:19:06;6.00;;;5.60;;
21334;SDS011;69435;52.670;13.544;2023-06-10T14:21:31;8.30;;;5.22;;
21334;SDS011;69435;52.670;13.544;2023-06-10T14:23:58;7.35;;;4.82;;
21334;SDS011;69435;52.670;13.544;2023-06-10T14:26:23;5.60;;;5.20;;
21334;SDS011;69435;52.670;13.544;2023-06-10T14:28:51;5.43;;;5.03;;
21334;SDS011;69435;52.670;13.544;2023-06-10T14:31:17;6.05;;;5.65;;
21334;SDS011;69435;52.670;13.544;2023-06-10T14:33:43;15.80;;;7.35;;
21334;SDS011;69435;52.670;13.544;2023-06-10T14:36:09;5.57;;;5.07;;
21334;SDS011;69435;52.670;13.544;2023-06-10T14:38:37;5.72;;;5.32;;
21334;SDS011;69435;52.670;13.544;2023-06-10T14:41:02;5.57;;;5.20;;
21334;SDS011;69435;52.670;13.544;2023-06-10T14:43:28;5.85;;;5.38;;
21334;SDS011;69435;52.670;13.544;2023-06-10T14:45:54;8.25;;;5.10;;
21334;SDS011;69435;52.670;13.544;2023-06-10T14:48:21;5.88;;;5.05;;